createdAt,value
2022-08-16T00:02:22.266Z,2.33
2022-08-16T00:04:51.165Z,2.92
2022-08-16T00:07:17.765Z,2.40
2022-08-16T00:09:43.595Z,2.65
2022-08-16T00:12:10.071Z,2.80
2022-08-16T00:14:36.015Z,2.63
2022-08-16T00:17:18.672Z,2.72
2022-08-16T00:19:46.227Z,2.60
2022-08-16T00:22:13.768Z,3.20
2022-08-16T00:24:44.925Z,2.72
2022-08-16T00:27:13.077Z,2.80
2022-08-16T00:29:38.947Z,2.33
2022-08-16T00:32:06.675Z,2.95
2022-08-16T00:34:43.687Z,3.10
2022-08-16T00:37:20.489Z,2.70
2022-08-16T00:39:47.883Z,2.97
2022-08-16T00:42:30.345Z,2.72
2022-08-16T00:45:08.639Z,2.83
2022-08-16T00:47:38.757Z,2.95
2022-08-16T00:50:11.377Z,3.03
2022-08-16T00:52:50.142Z,2.60
2022-08-16T00:55:16.955Z,2.80
2022-08-16T00:58:00.190Z,3.08
2022-08-16T01:00:32.103Z,2.30
2022-08-16T01:03:02.490Z,2.50
2022-08-16T01:05:30.224Z,2.72
2022-08-16T01:07:59.761Z,2.53
2022-08-16T01:10:32.965Z,2.88
2022-08-16T01:13:15.195Z,2.85
2022-08-16T01:15:48.346Z,2.33
2022-08-16T01:18:40.013Z,2.80
2022-08-16T01:21:24.945Z,2.70
2022-08-16T01:24:52.964Z,2.47
2022-08-16T01:27:03.973Z,2.47
2022-08-16T01:29:58.369Z,2.80
2022-08-16T01:32:31.530Z,2.30
2022-08-16T01:35:00.255Z,2.42
2022-08-16T01:37:26.890Z,3.13
2022-08-16T01:40:03.390Z,2.55
2022-08-16T01:42:33.075Z,2.28
2022-08-16T01:44:59.985Z,2.50
2022-08-16T01:47:27.084Z,2.22
2022-08-16T01:50:43.608Z,2.65
2022-08-16T01:52:42.112Z,2.35
2022-08-16T01:55:12.490Z,2.80
2022-08-16T01:57:40.704Z,2.40
2022-08-16T02:00:20.294Z,2.35
2022-08-16T02:02:54.908Z,3.00
2022-08-16T02:05:21.150Z,2.60
2022-08-16T02:07:49.786Z,2.38
2022-08-16T02:10:18.225Z,2.42
2022-08-16T02:12:51.083Z,2.60
2022-08-16T02:15:24.731Z,2.67
2022-08-16T02:17:52.521Z,2.47
2022-08-16T02:20:26.395Z,2.70
2022-08-16T02:22:55.495Z,3.17
2022-08-16T02:25:21.885Z,2.72
2022-08-16T02:27:51.010Z,2.58
2022-08-16T02:30:36.924Z,2.40
2022-08-16T02:33:08.947Z,2.58
2022-08-16T02:35:49.891Z,2.20
2022-08-16T02:38:21.403Z,2.35
2022-08-16T02:40:47.683Z,2.70
2022-08-16T02:43:15.300Z,2.72
2022-08-16T02:45:41.219Z,2.70
2022-08-16T02:48:29.282Z,2.80
2022-08-16T02:51:10.170Z,2.45
2022-08-16T02:53:39.326Z,2.25
2022-08-16T02:56:06.324Z,2.50
2022-08-16T02:58:36.183Z,2.38
2022-08-16T03:01:03.251Z,2.80
2022-08-16T03:04:29.849Z,3.08
2022-08-16T03:06:42.003Z,2.95
2022-08-16T03:09:05.825Z,2.88
2022-08-16T03:11:35.357Z,2.80
2022-08-16T03:14:01.983Z,2.88
2022-08-16T03:16:39.114Z,2.65
2022-08-16T03:19:19.238Z,3.00
2022-08-16T03:21:48.697Z,2.60
2022-08-16T03:24:28.757Z,2.50
2022-08-16T03:27:01.757Z,2.65
2022-08-16T03:29:31.818Z,2.90
2022-08-16T03:32:01.898Z,2.38
2022-08-16T03:34:29.867Z,2.50
2022-08-16T03:36:56.598Z,2.55
2022-08-16T03:39:22.694Z,2.65
2022-08-16T03:41:50.280Z,2.83
2022-08-16T03:44:44.571Z,3.20
2022-08-16T03:47:03.689Z,2.65
2022-08-16T03:49:36.580Z,2.30
2022-08-16T03:52:03.527Z,2.58
2022-08-16T03:54:29.674Z,2.67
2022-08-16T03:56:57.138Z,2.72
2022-08-16T03:59:24.194Z,2.55
2022-08-16T04:01:50.027Z,2.85
2022-08-16T04:04:32.266Z,2.92
2022-08-16T04:06:58.741Z,2.60
2022-08-16T04:09:24.578Z,2.95
2022-08-16T04:11:52.307Z,3.22
2022-08-16T04:14:31.084Z,2.53
2022-08-16T04:17:00.243Z,2.72
2022-08-16T04:19:31.741Z,2.78
2022-08-16T04:21:57.918Z,3.42
2022-08-16T04:24:28.761Z,3.10
2022-08-16T04:26:55.028Z,3.03
2022-08-16T04:29:21.774Z,2.88
2022-08-16T04:31:56.095Z,2.80
2022-08-16T04:34:29.335Z,2.72
2022-08-16T04:36:57.278Z,2.65
2022-08-16T04:39:24.149Z,3.10
2022-08-16T04:41:50.573Z,3.00
2022-08-16T04:44:52.707Z,3.00
2022-08-16T04:47:21.465Z,3.50
2022-08-16T04:49:50.299Z,3.53
2022-08-16T04:52:32.641Z,3.45
2022-08-16T04:55:06.508Z,3.33
2022-08-16T04:57:33.852Z,3.20
2022-08-16T04:59:59.708Z,2.83
2022-08-16T05:02:56.417Z,2.72
2022-08-16T05:05:25.150Z,2.75
2022-08-16T05:07:58.192Z,3.67
2022-08-16T05:10:27.626Z,3.83
2022-08-16T05:12:53.669Z,2.95
2022-08-16T05:15:19.587Z,3.15
2022-08-16T05:17:47.643Z,2.70
2022-08-16T05:20:38.622Z,2.53
2022-08-16T05:23:12.076Z,2.70
2022-08-16T05:25:48.054Z,2.92
2022-08-16T05:28:15.750Z,2.58
2022-08-16T05:30:41.569Z,2.47
2022-08-16T05:33:16.313Z,2.90
2022-08-16T05:35:43.603Z,2.88
2022-08-16T05:38:30.973Z,2.33
2022-08-16T05:41:00.211Z,3.38
2022-08-16T05:43:27.151Z,2.95
2022-08-16T05:45:59.126Z,2.55
2022-08-16T05:48:26.896Z,3.10
2022-08-16T05:50:53.444Z,3.08
2022-08-16T05:53:19.290Z,2.20
2022-08-16T05:55:48.351Z,2.47
2022-08-16T05:58:31.790Z,2.60
2022-08-16T06:00:59.279Z,2.53
2022-08-16T06:03:25.164Z,2.72
2022-08-16T06:05:50.979Z,3.70
2022-08-16T06:08:31.625Z,2.75
2022-08-16T06:11:02.648Z,2.78
2022-08-16T06:13:37.048Z,2.33
2022-08-16T06:16:04.769Z,2.78
2022-08-16T06:18:32.643Z,2.70
2022-08-16T06:20:58.682Z,2.42
2022-08-16T06:23:25.910Z,3.53
2022-08-16T06:25:53.551Z,2.70
2022-08-16T06:28:34.921Z,2.78
2022-08-16T06:31:03.854Z,2.55
2022-08-16T06:33:41.339Z,2.60
2022-08-16T06:38:36.410Z,2.97
2022-08-16T06:41:13.658Z,2.75
2022-08-16T06:43:40.972Z,2.28
2022-08-16T06:46:10.063Z,2.70
2022-08-16T06:48:37.141Z,2.55
2022-08-16T06:51:09.134Z,2.65
2022-08-16T06:53:36.659Z,2.55
2022-08-16T06:56:06.144Z,2.95
2022-08-16T06:58:41.345Z,3.35
2022-08-16T07:01:14.788Z,2.72
2022-08-16T07:03:54.580Z,3.45
2022-08-16T07:06:26.703Z,2.35
2022-08-16T07:08:54.525Z,2.88
2022-08-16T07:11:20.353Z,3.00
2022-08-16T07:14:26.498Z,3.00
2022-08-16T07:16:52.609Z,2.45
2022-08-16T07:19:18.444Z,3.10
2022-08-16T07:21:59.041Z,3.05
2022-08-16T07:24:30.565Z,3.05
2022-08-16T07:26:58.895Z,3.20
2022-08-16T07:29:27.065Z,3.30
2022-08-16T07:31:58.789Z,3.13
2022-08-16T07:34:35.847Z,2.78
2022-08-16T07:37:10.209Z,2.90
2022-08-16T07:39:43.428Z,3.30
2022-08-16T07:42:11.059Z,2.70
2022-08-16T07:44:51.863Z,2.88
2022-08-16T07:47:17.806Z,2.90
2022-08-16T07:49:49.847Z,3.20
2022-08-16T07:52:20.688Z,3.35
2022-08-16T07:54:48.930Z,2.55
2022-08-16T07:57:15.589Z,3.20
2022-08-16T07:59:46.448Z,3.25
2022-08-16T08:02:13.463Z,2.80
2022-08-16T08:04:46.947Z,3.13
2022-08-16T08:07:14.159Z,3.10
2022-08-16T08:09:43.293Z,3.03
2022-08-16T08:12:09.568Z,2.95
2022-08-16T08:14:55.385Z,2.83
2022-08-16T08:17:22.170Z,2.88
2022-08-16T08:19:53.291Z,3.40
2022-08-16T08:22:22.187Z,2.97
2022-08-16T08:24:48.697Z,2.85
2022-08-16T08:27:22.807Z,2.78
2022-08-16T08:30:50.029Z,2.80
2022-08-16T08:32:57.481Z,2.97
2022-08-16T08:35:26.933Z,3.70
2022-08-16T08:37:56.266Z,2.67
2022-08-16T08:40:26.715Z,2.72
2022-08-16T08:43:00.613Z,3.20
2022-08-16T08:45:47.368Z,3.10
2022-08-16T08:48:33.329Z,2.75
2022-08-16T08:51:01.772Z,2.55
2022-08-16T08:53:30.554Z,2.60
2022-08-16T08:55:58.736Z,3.15
2022-08-16T08:58:24.810Z,3.03
2022-08-16T09:01:02.300Z,2.88
2022-08-16T09:03:28.397Z,2.97
2022-08-16T09:05:58.782Z,2.65
2022-08-16T09:08:26.621Z,3.03
2022-08-16T09:10:58.707Z,2.53
2022-08-16T09:15:58.557Z,3.08
2022-08-16T09:18:27.211Z,3.28
2022-08-16T09:21:02.273Z,2.95
2022-08-16T09:23:36.441Z,2.88
2022-08-16T09:26:44.693Z,3.63
2022-08-16T09:29:15.019Z,3.22
2022-08-16T09:31:37.217Z,2.55
2022-08-16T09:34:07.122Z,3.08
2022-08-16T09:36:34.418Z,2.67
2022-08-16T09:39:02.624Z,3.58
2022-08-16T09:41:28.565Z,3.05
2022-08-16T09:44:00.251Z,3.40
2022-08-16T09:46:49.055Z,3.05
2022-08-16T09:49:16.651Z,3.25
2022-08-16T09:51:54.248Z,2.88
2022-08-16T09:54:23.413Z,3.15
2022-08-16T09:56:52.118Z,3.95
2022-08-16T09:59:21.038Z,3.28
2022-08-16T10:01:48.364Z,3.10
2022-08-16T10:04:31.538Z,3.20
2022-08-16T10:09:44.885Z,3.10
2022-08-16T10:12:42.568Z,3.33
2022-08-16T10:15:09.974Z,2.45
2022-08-16T10:17:42.099Z,3.00
2022-08-16T10:20:10.672Z,2.63
2022-08-16T10:22:44.308Z,2.90
2022-08-16T10:25:10.824Z,2.63
2022-08-16T10:28:05.922Z,2.72
2022-08-16T10:30:43.350Z,2.50
2022-08-16T10:33:12.851Z,2.50
2022-08-16T10:35:46.634Z,2.50
2022-08-16T10:38:27.066Z,2.60
2022-08-16T10:40:53.973Z,2.47
2022-08-16T10:43:20.437Z,2.50
2022-08-16T10:45:59.780Z,2.40
2022-08-16T10:48:28.815Z,2.60
2022-08-16T10:50:57.521Z,2.45
2022-08-16T10:53:33.148Z,2.55
2022-08-16T10:56:52.451Z,2.65
2022-08-16T10:58:57.185Z,2.53
2022-08-16T11:01:43.194Z,2.65
2022-08-16T11:09:43.729Z,2.50
2022-08-16T11:12:14.004Z,2.78
2022-08-16T11:15:11.355Z,2.40
2022-08-16T11:17:26.829Z,2.53
2022-08-16T11:22:47.663Z,2.00
2022-08-16T11:28:09.946Z,2.17
2022-08-16T11:30:38.708Z,2.05
2022-08-16T11:33:06.410Z,2.20
2022-08-16T11:38:46.621Z,2.53
2022-08-16T11:41:08.369Z,2.40
2022-08-16T11:43:38.091Z,1.83
2022-08-16T11:46:44.162Z,2.70
2022-08-16T11:48:54.468Z,1.92
2022-08-16T11:51:20.725Z,2.50
2022-08-16T11:53:46.574Z,2.33
2022-08-16T11:56:12.613Z,2.40
2022-08-16T11:58:42.096Z,2.30
2022-08-16T12:01:08.019Z,2.50
2022-08-16T12:03:36.839Z,2.33
2022-08-16T12:06:25.269Z,2.95
2022-08-16T12:09:01.987Z,2.15
2022-08-16T12:11:28.891Z,2.30
2022-08-16T12:14:01.738Z,1.60
2022-08-16T12:16:34.425Z,2.40
2022-08-16T12:19:04.558Z,2.22
2022-08-16T12:21:36.122Z,2.42
2022-08-16T12:24:17.457Z,2.20
2022-08-16T12:26:43.404Z,2.20
2022-08-16T12:29:09.886Z,2.33
2022-08-16T12:31:36.417Z,1.98
2022-08-16T12:34:06.658Z,2.17
2022-08-16T12:36:36.538Z,2.10
2022-08-16T12:39:04.796Z,2.08
2022-08-16T12:41:36.860Z,2.28
2022-08-16T12:44:04.912Z,2.30
2022-08-16T12:46:33.051Z,2.30
2022-08-16T12:49:01.027Z,2.15
2022-08-16T12:51:59.804Z,2.30
2022-08-16T12:56:48.223Z,1.90
2022-08-16T12:59:20.359Z,2.40
2022-08-16T13:01:48.017Z,1.90
2022-08-16T13:04:21.012Z,1.95
2022-08-16T13:06:52.428Z,1.60
2022-08-16T13:09:20.840Z,1.90
2022-08-16T13:12:06.735Z,1.85
2022-08-16T13:14:37.630Z,2.00
2022-08-16T13:17:07.662Z,2.00
2022-08-16T13:19:56.378Z,2.58
2022-08-16T13:22:21.777Z,2.22
2022-08-16T13:24:47.879Z,2.50
2022-08-16T13:27:13.939Z,2.47
2022-08-16T13:29:39.998Z,2.10
2022-08-16T13:32:10.216Z,2.53
2022-08-16T13:34:56.016Z,2.10
2022-08-16T13:37:22.710Z,2.22
2022-08-16T13:39:48.545Z,2.05
2022-08-16T13:42:14.547Z,2.45
2022-08-16T13:44:55.988Z,2.40
2022-08-16T13:47:22.622Z,2.20
2022-08-16T13:49:50.726Z,2.67
2022-08-16T13:52:17.867Z,2.22
2022-08-16T13:54:44.440Z,2.08
2022-08-16T13:57:11.719Z,2.20
2022-08-16T13:59:38.341Z,2.28
2022-08-16T14:02:07.817Z,2.40
2022-08-16T14:04:36.929Z,2.25
2022-08-16T14:07:06.616Z,2.25
2022-08-16T14:09:35.719Z,1.98
2022-08-16T14:12:09.892Z,2.17
2022-08-16T14:14:44.093Z,2.15
2022-08-16T14:17:09.993Z,2.70
2022-08-16T14:19:36.216Z,2.30
2022-08-16T14:22:14.404Z,2.30
2022-08-16T14:24:45.372Z,2.13
2022-08-16T14:27:14.697Z,2.10
2022-08-16T14:29:41.558Z,2.05
2022-08-16T14:32:08.021Z,2.20
2022-08-16T14:34:35.106Z,2.22
2022-08-16T14:37:04.537Z,2.33
2022-08-16T14:39:32.817Z,2.25
2022-08-16T14:42:08.176Z,2.20
2022-08-16T14:44:37.079Z,2.55
2022-08-16T14:47:05.733Z,2.30
2022-08-16T14:49:33.822Z,1.73
2022-08-16T14:52:06.224Z,1.77
2022-08-16T14:54:32.903Z,2.05
2022-08-16T14:56:58.998Z,2.15
2022-08-16T14:59:25.458Z,2.00
2022-08-16T15:01:59.487Z,2.50
2022-08-16T15:04:40.518Z,2.40
2022-08-16T15:07:15.543Z,2.45
2022-08-16T15:09:44.608Z,2.50
2022-08-16T15:12:31.066Z,2.33
2022-08-16T15:15:04.277Z,2.30
2022-08-16T15:17:40.410Z,2.10
2022-08-16T15:20:08.809Z,2.53
2022-08-16T15:22:39.964Z,2.42
2022-08-16T15:25:21.842Z,2.03
2022-08-16T15:27:54.678Z,2.10
2022-08-16T15:30:47.843Z,2.35
2022-08-16T15:33:14.929Z,2.42
2022-08-16T15:35:42.321Z,2.22
2022-08-16T15:38:09.207Z,2.42
2022-08-16T15:40:52.046Z,2.33
2022-08-16T15:43:23.882Z,2.53
2022-08-16T15:46:54.315Z,2.38
2022-08-16T15:49:04.154Z,2.38
2022-08-16T15:51:30.611Z,2.10
2022-08-16T15:54:21.191Z,1.77
2022-08-16T15:56:42.666Z,2.50
2022-08-16T15:59:08.569Z,2.85
2022-08-16T16:01:35.524Z,2.33
2022-08-16T16:04:01.473Z,2.40
2022-08-16T16:06:29.316Z,2.50
2022-08-16T16:08:55.197Z,2.63
2022-08-16T16:11:21.086Z,1.90
2022-08-16T16:13:51.897Z,2.70
2022-08-16T16:16:19.693Z,2.63
2022-08-16T16:18:48.968Z,2.45
2022-08-16T16:21:20.464Z,2.33
2022-08-16T16:23:54.855Z,2.58
2022-08-16T16:26:23.827Z,2.20
2022-08-16T16:29:08.640Z,2.58
2022-08-16T16:31:38.190Z,2.47
2022-08-16T16:34:06.101Z,2.05
2022-08-16T16:36:33.775Z,2.40
2022-08-16T16:39:02.024Z,2.38
2022-08-16T16:41:30.435Z,2.25
2022-08-16T16:43:57.867Z,2.60
2022-08-16T16:46:40.388Z,2.47
2022-08-16T16:49:11.621Z,2.97
2022-08-16T16:51:40.372Z,2.67
2022-08-16T16:54:08.595Z,2.38
2022-08-16T16:56:37.534Z,2.33
2022-08-16T16:59:09.072Z,2.47
2022-08-16T17:02:00.016Z,2.50
2022-08-16T17:04:31.943Z,2.42
2022-08-16T17:07:00.648Z,2.58
2022-08-16T17:09:26.648Z,2.55
2022-08-16T17:11:55.522Z,2.70
2022-08-16T17:14:32.708Z,2.45
2022-08-16T17:17:03.425Z,2.40
2022-08-16T17:19:31.746Z,2.58
2022-08-16T17:21:58.188Z,2.95
2022-08-16T17:24:39.467Z,2.45
2022-08-16T17:27:07.707Z,2.47
2022-08-16T17:29:34.760Z,2.60
2022-08-16T17:32:34.383Z,2.65
2022-08-16T17:37:48.812Z,2.67
2022-08-16T17:40:25.845Z,2.83
2022-08-16T17:43:04.825Z,2.47
2022-08-16T17:45:32.413Z,2.40
2022-08-16T17:47:58.419Z,2.40
2022-08-16T17:50:24.327Z,2.60
2022-08-16T17:52:53.586Z,3.05
2022-08-16T17:55:28.555Z,2.70
2022-08-16T17:57:54.517Z,3.45
2022-08-16T18:00:21.824Z,3.15
2022-08-16T18:02:52.542Z,3.80
2022-08-16T18:05:19.640Z,3.38
2022-08-16T18:07:46.630Z,3.80
2022-08-16T18:10:14.033Z,3.30
2022-08-16T18:12:56.793Z,3.20
2022-08-16T18:15:24.463Z,3.40
2022-08-16T18:17:52.342Z,3.33
2022-08-16T18:20:41.509Z,3.00
2022-08-16T18:23:23.793Z,3.53
2022-08-16T18:25:54.457Z,3.58
2022-08-16T18:28:20.600Z,3.35
2022-08-16T18:30:51.042Z,3.45
2022-08-16T18:33:18.174Z,3.70
2022-08-16T18:35:44.400Z,3.50
2022-08-16T18:38:10.738Z,3.20
2022-08-16T18:40:37.142Z,3.92
2022-08-16T18:43:04.705Z,3.40
2022-08-16T18:45:35.350Z,3.42
2022-08-16T18:48:03.219Z,3.47
2022-08-16T18:50:29.155Z,2.95
2022-08-16T18:53:18.119Z,4.18
2022-08-16T18:55:45.656Z,3.60
2022-08-16T18:58:14.778Z,3.80
2022-08-16T19:00:56.043Z,3.30
2022-08-16T19:03:26.844Z,3.17
2022-08-16T19:06:11.297Z,3.72
2022-08-16T19:08:40.136Z,3.35
2022-08-16T19:11:08.727Z,3.45
2022-08-16T19:13:35.720Z,3.55
2022-08-16T19:16:03.132Z,3.15
2022-08-16T19:18:30.398Z,3.65
2022-08-16T19:21:04.627Z,3.30
2022-08-16T19:23:33.717Z,3.88
2022-08-16T19:26:06.463Z,3.42
2022-08-16T19:28:51.734Z,3.80
2022-08-16T19:31:25.638Z,3.53
2022-08-16T19:33:55.004Z,3.92
2022-08-16T19:36:35.443Z,4.22
2022-08-16T19:39:06.601Z,4.57
2022-08-16T19:41:39.648Z,3.70
2022-08-16T19:44:06.389Z,4.10
2022-08-16T19:46:32.948Z,3.97
2022-08-16T19:48:59.186Z,3.90
2022-08-16T19:51:25.047Z,4.00
2022-08-16T19:53:51.023Z,3.97
2022-08-16T19:56:17.966Z,3.72
2022-08-16T19:59:08.717Z,4.18
2022-08-16T20:01:30.133Z,3.58
2022-08-16T20:03:56.103Z,4.00
2022-08-16T20:06:37.650Z,3.85
2022-08-16T20:09:04.429Z,3.60
2022-08-16T20:11:30.250Z,3.83
2022-08-16T20:13:56.084Z,4.25
2022-08-16T20:16:22.115Z,3.90
2022-08-16T20:18:47.995Z,3.08
2022-08-16T20:21:13.865Z,3.92
2022-08-16T20:23:40.111Z,3.58
2022-08-16T20:26:05.976Z,3.45
2022-08-16T20:28:40.752Z,3.60
2022-08-16T20:31:17.740Z,3.40
2022-08-16T20:33:43.619Z,3.80
2022-08-16T20:36:09.491Z,3.65
2022-08-16T20:38:46.162Z,3.47
2022-08-16T20:41:12.332Z,4.13
2022-08-16T20:43:38.190Z,3.75
2022-08-16T20:46:04.199Z,3.63
2022-08-16T20:48:30.193Z,4.03
2022-08-16T20:50:56.109Z,4.28
2022-08-16T20:53:22.232Z,4.00
2022-08-16T20:55:48.601Z,3.72
2022-08-16T20:58:14.956Z,3.88
2022-08-16T21:00:41.046Z,3.95
2022-08-16T21:03:09.263Z,3.78
2022-08-16T21:05:35.491Z,4.28
2022-08-16T21:08:03.187Z,4.10
2022-08-16T21:10:47.896Z,4.15
2022-08-16T21:13:13.820Z,4.20
2022-08-16T21:15:39.657Z,4.40
2022-08-16T21:18:05.651Z,4.63
2022-08-16T21:20:31.467Z,4.38
2022-08-16T21:23:03.218Z,4.20
2022-08-16T21:25:31.036Z,4.40
2022-08-16T21:28:39.061Z,3.72
2022-08-16T21:30:43.580Z,3.75
2022-08-16T21:33:13.138Z,3.25
2022-08-16T21:35:40.896Z,3.55
2022-08-16T21:38:29.574Z,4.00
2022-08-16T21:40:52.791Z,3.90
2022-08-16T21:43:22.072Z,3.65
2022-08-16T21:45:48.685Z,3.80
2022-08-16T21:48:34.735Z,3.60
2022-08-16T21:51:03.960Z,3.53
2022-08-16T21:53:30.079Z,3.40
2022-08-16T21:55:57.707Z,3.30
2022-08-16T21:58:24.623Z,3.35
2022-08-16T22:00:50.994Z,3.08
2022-08-16T22:03:17.562Z,3.40
2022-08-16T22:05:46.076Z,3.15
2022-08-16T22:08:32.020Z,3.40
2022-08-16T22:11:04.922Z,3.40
2022-08-16T22:13:34.430Z,3.90
2022-08-16T22:16:03.091Z,3.20
2022-08-16T22:18:28.991Z,3.53
2022-08-16T22:20:54.835Z,3.28
2022-08-16T22:23:23.642Z,3.78
2022-08-16T22:25:52.078Z,3.30
2022-08-16T22:28:19.845Z,3.25
2022-08-16T22:30:46.597Z,3.10
2022-08-16T22:33:25.522Z,3.65
2022-08-16T22:35:58.766Z,3.47
2022-08-16T22:38:53.852Z,3.47
2022-08-16T22:41:12.559Z,3.22
2022-08-16T22:43:38.880Z,3.30
2022-08-16T22:46:04.840Z,3.28
2022-08-16T22:48:31.568Z,3.33
2022-08-16T22:51:05.222Z,2.80
2022-08-16T22:53:31.889Z,3.10
2022-08-16T22:55:57.696Z,3.40
2022-08-16T22:58:23.624Z,3.35
2022-08-16T23:01:04.986Z,3.30
2022-08-16T23:03:30.840Z,3.17
2022-08-16T23:05:59.634Z,3.58
2022-08-16T23:08:39.541Z,3.35
2022-08-16T23:11:11.714Z,3.22
2022-08-16T23:13:38.311Z,3.15
2022-08-16T23:16:20.311Z,2.67
2022-08-16T23:18:47.798Z,3.13
2022-08-16T23:21:13.956Z,3.08
2022-08-16T23:23:39.887Z,3.65
2022-08-16T23:26:44.673Z,3.30
2022-08-16T23:28:53.599Z,3.85
2022-08-16T23:31:19.405Z,3.08
2022-08-16T23:33:45.435Z,3.40
2022-08-16T23:36:11.408Z,3.95
2022-08-16T23:38:39.363Z,3.55
2022-08-16T23:41:09.229Z,3.20
2022-08-16T23:43:40.890Z,3.25
2022-08-16T23:46:10.894Z,3.40
2022-08-16T23:49:56.906Z,3.70
2022-08-16T23:51:23.062Z,3.22
2022-08-16T23:53:49.424Z,3.20
2022-08-16T23:56:19.397Z,3.03
2022-08-16T23:58:48.459Z,3.60
